Time;durP1;ratioP1;P1;durP2;ratioP2;P2;SDS_P1;SDS_P2;PMS_P1;PMS_P2;Temp;Humidity;BMP_temperature;BMP_pressure;BME280_temperature;BME280_humidity;BME280_pressure;Samples;Min_cycle;Max_cycle;Signal;HPM_P1;HPM_P2
2022/02/21 00:00:57;;;;;;;3.50;1.63;;;;;;;10.67;72.03;95891.88;4967231;28;20253;-87
2022/02/21 00:03:23;;;;;;;4.85;1.10;;;;;;;10.57;72.33;95875.59;4945807;28;20269;-86
2022/02/21 00:05:50;;;;;;;4.32;1.35;;;;;;;10.60;72.17;95867.22;4965852;28;20131;-87
2022/02/21 00:08:15;;;;;;;5.15;1.48;;;;;;;10.21;73.60;95848.06;4971741;28;20251;-85
2022/02/21 00:10:41;;;;;;;5.55;1.38;;;;;;;10.21;73.64;95858.47;4987598;28;20712;-85
2022/02/21 00:13:06;;;;;;;6.75;1.25;;;;;;;10.46;73.06;95848.91;4959794;28;20277;-85
2022/02/21 00:15:31;;;;;;;3.90;2.20;;;;;;;10.61;72.54;95850.56;4971824;28;20206;-85
2022/02/21 00:17:57;;;;;;;3.75;2.15;;;;;;;10.34;73.07;95830.28;4988239;28;20235;-83
2022/02/21 00:20:23;;;;;;;4.05;1.20;;;;;;;10.48;73.22;95834.53;4971793;28;20101;-84
2022/02/21 00:22:49;;;;;;;5.22;1.60;;;;;;;10.30;73.60;95799.59;4955483;28;20159;-83
2022/02/21 00:25:14;;;;;;;4.90;1.20;;;;;;;10.21;74.53;95814.25;4967124;28;20194;-87
2022/02/21 00:27:40;;;;;;;6.85;1.42;;;;;;;10.19;74.24;95805.94;4967335;28;20292;-86
2022/02/21 00:30:06;;;;;;;5.57;1.50;;;;;;;10.26;74.05;95808.22;4956415;28;20216;-88
2022/02/21 00:32:32;;;;;;;4.53;1.40;;;;;;;10.42;74.00;95817.44;4960693;28;20380;-87
2022/02/21 00:34:57;;;;;;;3.70;1.10;;;;;;;10.33;73.90;95784.50;4958042;28;20153;-83
2022/02/21 00:37:23;;;;;;;4.85;1.50;;;;;;;10.13;73.95;95776.59;4962578;28;20285;-87
2022/02/21 00:39:48;;;;;;;4.75;1.60;;;;;;;10.47;73.42;95798.41;4965881;28;20659;-86
2022/02/21 00:42:14;;;;;;;5.15;1.15;;;;;;;10.28;74.07;95770.47;4964083;28;20245;-84
2022/02/21 00:44:41;;;;;;;4.43;1.55;;;;;;;10.34;73.59;95767.84;4965043;28;20167;-84
2022/02/21 00:47:07;;;;;;;3.40;1.33;;;;;;;10.39;73.07;95767.78;4955410;28;20309;-87
2022/02/21 00:49:32;;;;;;;6.25;1.20;;;;;;;10.70;72.11;95762.22;4955311;28;20663;-85
2022/02/21 00:51:58;;;;;;;4.95;1.63;;;;;;;10.24;73.72;95763.50;4971037;28;20206;-86
2022/02/21 00:54:28;;;;;;;4.05;1.25;;;;;;;10.52;72.89;95763.75;4941410;28;20641;-86
2022/02/21 00:56:54;;;;;;;2.33;0.90;;;;;;;10.43;73.04;95729.75;4980835;28;20201;-86
2022/02/21 00:59:19;;;;;;;6.05;1.10;;;;;;;10.34;73.83;95739.25;4964194;28;20595;-86
2022/02/21 01:01:45;;;;;;;3.47;1.17;;;;;;;10.32;73.92;95712.72;4984681;28;20171;-85
2022/02/21 01:04:10;;;;;;;2.00;0.90;;;;;;;10.43;73.64;95694.09;4978523;28;20213;-84
2022/02/21 01:06:35;;;;;;;3.33;0.82;;;;;;;10.37;73.05;95704.88;4964600;28;20684;-86
2022/02/21 01:09:01;;;;;;;5.43;0.93;;;;;;;10.52;72.84;95709.88;4969633;28;20275;-86
2022/02/21 01:11:30;;;;;;;5.30;1.20;;;;;;;10.37;73.99;95700.44;4961716;28;20237;-85
2022/02/21 01:13:58;;;;;;;3.80;1.25;;;;;;;10.58;72.72;95695.72;4955814;28;20162;-84
2022/02/21 01:16:27;;;;;;;1.63;1.08;;;;;;;10.33;73.86;95694.22;4954719;28;20952;-87
2022/02/21 01:18:53;;;;;;;2.97;0.80;;;;;;;10.46;73.30;95692.78;4964933;28;20617;-85
2022/02/21 01:21:18;;;;;;;3.83;1.27;;;;;;;10.58;72.93;95700.94;4955403;28;20218;-85
2022/02/21 01:23:44;;;;;;;5.00;0.90;;;;;;;10.40;73.45;95678.25;4954619;28;20366;-83
2022/02/21 01:26:09;;;;;;;3.05;0.90;;;;;;;10.37;73.88;95690.03;4948674;28;20614;-86
2022/02/21 01:28:35;;;;;;;2.30;0.90;;;;;;;10.48;73.53;95694.03;4965910;28;20200;-85
2022/02/21 01:31:01;;;;;;;4.82;0.70;;;;;;;10.46;73.15;95675.31;4969823;28;20171;-81
2022/02/21 01:33:28;;;;;;;4.25;0.70;;;;;;;10.42;73.73;95666.53;4970894;28;20320;-87
2022/02/21 01:35:54;;;;;;;3.05;1.00;;;;;;;10.46;73.41;95645.94;4971688;28;20236;-87
2022/02/21 01:38:20;;;;;;;1.40;0.73;;;;;;;10.86;71.84;95664.63;4954515;28;20354;-86
2022/02/21 01:40:45;;;;;;;2.67;0.60;;;;;;;10.38;73.46;95634.31;4958392;28;20670;-86
2022/02/21 01:43:11;;;;;;;2.28;0.80;;;;;;;10.55;73.17;95628.63;4980997;28;20621;-86
2022/02/21 01:45:36;;;;;;;2.67;0.47;;;;;;;10.59;72.92;95654.84;4967857;28;20273;-88
2022/02/21 01:48:02;;;;;;;3.95;1.58;;;;;;;10.42;73.85;95669.13;4937693;28;20675;-85
2022/02/21 01:50:27;;;;;;;2.13;0.70;;;;;;;10.42;74.01;95681.38;4986621;28;20420;-86
2022/02/21 01:52:53;;;;;;;2.78;0.60;;;;;;;10.23;74.10;95752.31;4941559;28;20294;-85
2022/02/21 01:55:19;;;;;;;2.60;0.57;;;;;;;10.06;73.82;95762.38;4968797;28;20250;-87
2022/02/21 01:57:48;;;;;;;0.70;0.40;;;;;;;10.23;72.49;95785.34;4957888;28;20195;-83
2022/02/21 02:00:14;;;;;;;1.17;0.40;;;;;;;10.06;71.13;95788.41;4951469;28;20276;-85
2022/02/21 02:02:43;;;;;;;2.20;0.57;;;;;;;10.05;71.22;95797.25;4945398;28;20318;-86
2022/02/21 02:05:09;;;;;;;2.95;0.70;;;;;;;10.33;70.24;95819.09;4983407;28;20186;-84
2022/02/21 02:07:35;;;;;;;1.40;0.45;;;;;;;10.19;70.38;95837.16;4972653;28;20198;-84
2022/02/21 02:10:00;;;;;;;2.10;0.50;;;;;;;9.79;70.28;95846.84;4979115;28;20271;-86
2022/02/21 02:12:26;;;;;;;4.45;0.65;;;;;;;9.93;69.71;95852.97;4983160;28;20252;-86
2022/02/21 02:14:52;;;;;;;5.10;1.25;;;;;;;9.94;69.31;95856.38;4967324;28;20240;-88
2022/02/21 02:17:17;;;;;;;3.38;0.40;;;;;;;9.29;70.50;95864.31;4963375;28;20205;-84
2022/02/21 02:19:45;;;;;;;2.22;0.40;;;;;;;9.82;69.49;95885.31;4955752;28;20104;-87
2022/02/21 02:22:17;;;;;;;2.42;0.40;;;;;;;9.31;70.58;95908.97;4968326;28;20245;-86
2022/02/21 02:24:45;;;;;;;2.35;0.60;;;;;;;9.00;70.53;95915.06;4967496;28;20163;-84
2022/02/21 02:27:10;;;;;;;3.17;0.70;;;;;;;8.63;69.72;95916.19;4966654;28;20232;-85
2022/02/21 02:29:37;;;;;;;3.30;0.60;;;;;;;7.98;68.32;95881.47;4969804;28;20683;-85
2022/02/21 02:32:05;;;;;;;4.05;1.02;;;;;;;7.92;68.51;95869.53;4970201;28;20398;-85
2022/02/21 02:34:30;;;;;;;5.25;0.70;;;;;;;8.18;68.05;95852.94;4969749;28;20190;-85
2022/02/21 02:36:55;;;;;;;5.10;0.57;;;;;;;8.22;68.78;95832.44;4952960;28;20109;-85
2022/02/21 02:39:23;;;;;;;3.30;0.50;;;;;;;8.23;67.96;95819.22;4984882;28;20313;-84
2022/02/21 02:41:50;;;;;;;4.13;0.80;;;;;;;8.22;68.78;95842.81;4952666;28;20210;-84
2022/02/21 02:44:15;;;;;;;4.03;0.50;;;;;;;8.34;67.50;95825.16;4969207;28;20273;-87
2022/02/21 02:46:40;;;;;;;5.10;0.70;;;;;;;8.12;67.02;95822.88;4974985;28;20698;-84
2022/02/21 02:49:06;;;;;;;6.20;0.80;;;;;;;8.37;66.78;95845.38;4969436;28;20292;-84
2022/02/21 02:51:31;;;;;;;6.00;0.90;;;;;;;8.31;67.76;95830.09;4939472;28;20157;-84
2022/02/21 02:53:57;;;;;;;4.50;0.90;;;;;;;8.39;67.15;95842.53;4952905;28;20186;-85
2022/02/21 02:56:22;;;;;;;6.28;1.23;;;;;;;8.29;67.02;95840.72;4952839;28;20283;-89
2022/02/21 02:58:48;;;;;;;5.80;1.73;;;;;;;8.41;66.60;95854.22;4963889;28;20167;-84
2022/02/21 03:01:13;;;;;;;8.40;1.83;;;;;;;8.43;67.61;95849.56;4985277;28;20254;-84
2022/02/21 03:03:39;;;;;;;7.72;1.25;;;;;;;8.27;67.38;95855.00;4959194;28;20191;-85
2022/02/21 03:06:04;;;;;;;9.57;1.25;;;;;;;8.17;67.03;95864.34;4955895;28;20213;-85
2022/02/21 03:08:30;;;;;;;3.17;0.77;;;;;;;8.12;67.12;95858.38;4944215;28;20345;-86
2022/02/21 03:10:55;;;;;;;7.05;1.70;;;;;;;8.07;67.15;95857.38;4937877;28;20400;-84
2022/02/21 03:13:20;;;;;;;4.97;0.80;;;;;;;8.04;65.44;95855.28;4946444;28;20202;-85
2022/02/21 03:15:46;;;;;;;3.53;1.00;;;;;;;7.81;65.75;95876.53;4962668;28;20205;-83
2022/02/21 03:18:11;;;;;;;10.38;1.67;;;;;;;8.15;65.94;95883.81;4969009;28;20274;-85
2022/02/21 03:20:36;;;;;;;5.00;0.60;;;;;;;7.84;64.41;95889.75;4979480;28;20104;-87
2022/02/21 03:23:02;;;;;;;6.32;0.70;;;;;;;7.84;63.71;95894.94;4986270;28;20186;-83
2022/02/21 03:25:27;;;;;;;5.22;0.90;;;;;;;8.04;62.65;95898.59;4962235;28;20635;-82
2022/02/21 03:27:53;;;;;;;5.00;1.10;;;;;;;7.90;63.84;95898.31;4966953;28;20189;-83
2022/02/21 03:30:18;;;;;;;5.05;0.95;;;;;;;7.85;63.29;95891.31;4946351;28;20197;-85
2022/02/21 03:32:44;;;;;;;6.05;0.70;;;;;;;8.02;63.13;95911.81;4980285;28;20631;-83
2022/02/21 03:35:09;;;;;;;6.63;1.67;;;;;;;7.81;62.58;95905.84;4979625;28;20284;-84
2022/02/21 03:37:38;;;;;;;4.18;1.85;;;;;;;8.11;63.03;95919.06;4969653;28;20647;-87
2022/02/21 03:40:07;;;;;;;2.67;1.00;;;;;;;7.81;62.15;95926.56;4964878;28;20671;-85
2022/02/21 03:42:36;;;;;;;3.22;0.47;;;;;;;7.93;61.49;95897.00;4986536;28;20724;-81
2022/02/21 03:45:02;;;;;;;5.82;0.63;;;;;;;7.90;59.91;95913.06;4979479;28;20271;-87
2022/02/21 03:47:28;;;;;;;3.65;1.27;;;;;;;7.90;61.27;95921.66;4963853;28;20201;-87
2022/02/21 03:49:53;;;;;;;1.23;0.45;;;;;;;7.71;60.28;95926.53;4958205;28;20199;-83
2022/02/21 03:52:19;;;;;;;5.38;0.98;;;;;;;7.76;59.77;95920.56;4970610;28;20267;-81
2022/02/21 03:54:44;;;;;;;4.80;0.70;;;;;;;7.65;59.28;95930.16;4962984;28;20250;-83
2022/02/21 03:57:09;;;;;;;5.28;0.73;;;;;;;7.60;58.58;95946.44;4980906;28;20280;-86
2022/02/21 03:59:35;;;;;;;4.35;0.60;;;;;;;7.83;59.11;95947.00;4980253;28;20209;-81
2022/02/21 04:02:00;;;;;;;6.97;1.08;;;;;;;7.66;58.40;95935.06;4989060;28;20179;-83
2022/02/21 04:04:25;;;;;;;8.20;1.60;;;;;;;7.96;58.38;95943.94;4968525;28;20266;-85
2022/02/21 04:06:51;;;;;;;5.35;1.05;;;;;;;7.68;58.43;95942.59;4990554;28;20163;-87
2022/02/21 04:09:16;;;;;;;3.97;1.13;;;;;;;7.54;57.86;95957.03;4974044;28;20185;-83
2022/02/21 04:11:41;;;;;;;3.22;0.70;;;;;;;7.72;58.29;95956.59;4990688;28;20198;-87
2022/02/21 04:14:07;;;;;;;4.65;0.60;;;;;;;7.78;58.26;95962.53;4966924;28;20291;-83
2022/02/21 04:16:34;;;;;;;2.63;0.50;;;;;;;7.59;57.62;95957.84;4977356;28;20621;-82
2022/02/21 04:19:02;;;;;;;4.82;1.20;;;;;;;7.63;58.33;95951.13;4962122;28;20268;-87
2022/02/21 04:21:30;;;;;;;4.70;0.80;;;;;;;7.50;58.10;95949.00;4975010;28;20670;-82
2022/02/21 04:23:56;;;;;;;5.80;1.75;;;;;;;7.58;58.24;95963.28;4965671;28;20195;-86
2022/02/21 04:26:21;;;;;;;8.38;0.85;;;;;;;7.68;57.75;95977.03;4986428;28;20636;-86
2022/02/21 04:28:47;;;;;;;6.30;0.82;;;;;;;7.65;57.82;95985.31;4966276;28;20210;-86
2022/02/21 04:31:17;;;;;;;4.70;0.90;;;;;;;7.31;57.81;95984.94;4972971;28;20185;-83
2022/02/21 04:33:43;;;;;;;4.80;1.25;;;;;;;7.48;57.42;95982.16;4973813;28;20183;-86
2022/02/21 04:36:08;;;;;;;4.03;1.67;;;;;;;7.34;57.55;95999.19;4956931;28;20169;-84
2022/02/21 04:38:34;;;;;;;4.80;0.77;;;;;;;6.75;57.50;95998.31;4967861;28;20146;-82
2022/02/21 04:40:59;;;;;;;7.32;1.38;;;;;;;6.86;56.24;95994.78;4973522;28;20162;-85
2022/02/21 04:43:26;;;;;;;8.35;0.98;;;;;;;6.68;56.60;96002.94;4973509;28;20209;-86
2022/02/21 04:45:55;;;;;;;6.57;1.83;;;;;;;6.88;56.53;96005.66;4973006;28;20079;-83
2022/02/21 04:48:23;;;;;;;7.15;2.17;;;;;;;6.51;55.98;96009.03;4951387;28;20194;-85
2022/02/21 04:50:49;;;;;;;9.60;2.40;;;;;;;6.82;55.28;96005.88;4956272;28;20692;-84
2022/02/21 04:53:14;;;;;;;9.13;1.25;;;;;;;6.91;55.98;96028.47;4973354;28;20313;-86
2022/02/21 04:55:40;;;;;;;5.43;0.98;;;;;;;6.44;54.99;96018.78;4983551;28;20703;-86
2022/02/21 04:58:05;;;;;;;7.05;1.52;;;;;;;6.79;56.38;96029.69;5002284;28;20185;-84
2022/02/21 05:00:31;;;;;;;6.07;1.10;;;;;;;6.78;55.89;96013.34;4978470;28;20378;-87
2022/02/21 05:02:56;;;;;;;8.30;1.55;;;;;;;6.88;55.57;96013.44;4944833;28;20175;-87
2022/02/21 05:05:22;;;;;;;4.72;0.75;;;;;;;6.61;56.55;96012.72;4972890;28;20378;-85
2022/02/21 05:07:47;;;;;;;6.25;1.33;;;;;;;7.00;55.77;96009.88;4971642;28;20196;-87
2022/02/21 05:10:13;;;;;;;7.15;1.00;;;;;;;6.96;54.44;96034.69;4955189;28;20632;-86
2022/02/21 05:12:38;;;;;;;6.35;1.65;;;;;;;6.77;54.03;96037.69;4963358;28;20325;-84
2022/02/21 05:15:06;;;;;;;7.68;1.52;;;;;;;6.84;54.44;96027.91;4987921;28;20202;-88
2022/02/21 05:17:32;;;;;;;5.18;1.33;;;;;;;6.45;54.93;96025.53;4943832;28;20558;-86
2022/02/21 05:19:57;;;;;;;8.43;2.17;;;;;;;6.44;54.45;96047.22;4973381;28;20209;-81
2022/02/21 05:22:23;;;;;;;5.90;1.15;;;;;;;6.71;55.32;96043.84;4947251;28;20277;-82
2022/02/21 05:24:50;;;;;;;5.05;0.95;;;;;;;6.66;54.47;96044.56;4971344;28;20296;-85
2022/02/21 05:27:15;;;;;;;10.55;1.42;;;;;;;6.54;55.92;96039.56;4964178;28;20189;-84
2022/02/21 05:29:41;;;;;;;5.57;0.98;;;;;;;6.62;54.71;96016.88;4954304;28;20221;-85
2022/02/21 05:32:08;;;;;;;4.85;0.90;;;;;;;6.87;55.23;96018.84;4964688;28;20203;-86
2022/02/21 05:34:34;;;;;;;8.27;1.75;;;;;;;6.57;54.91;96020.97;4987706;28;20178;-81
2022/02/21 05:36:59;;;;;;;6.05;1.33;;;;;;;6.86;54.79;96023.25;4960929;28;20097;-85
2022/02/21 05:39:25;;;;;;;5.75;1.48;;;;;;;6.73;54.89;96037.41;4967848;28;20166;-83
2022/02/21 05:41:50;;;;;;;8.95;1.73;;;;;;;6.77;55.58;96060.97;4971459;28;20642;-85
2022/02/21 05:44:15;;;;;;;11.05;2.22;;;;;;;6.39;55.67;96052.34;4952997;28;20262;-86
2022/02/21 05:46:41;;;;;;;9.05;1.83;;;;;;;6.60;56.21;96073.22;4969113;28;20213;-83
2022/02/21 05:49:06;;;;;;;8.32;2.22;;;;;;;6.46;56.46;96071.06;4972459;28;20194;-81
2022/02/21 05:51:32;;;;;;;13.38;1.50;;;;;;;6.47;55.98;96072.59;4984621;28;20213;-84
2022/02/21 05:53:57;;;;;;;6.40;0.82;;;;;;;6.60;55.65;96088.75;4971971;28;20210;-83
2022/02/21 05:56:22;;;;;;;6.10;1.05;;;;;;;6.46;55.81;96085.78;4964107;28;20637;-83
2022/02/21 05:58:48;;;;;;;12.00;1.92;;;;;;;6.57;55.05;96079.69;4983658;28;20284;-84
2022/02/21 06:01:13;;;;;;;8.68;1.85;;;;;;;6.47;55.39;96090.69;4963409;28;20194;-83
2022/02/21 06:03:38;;;;;;;7.22;1.95;;;;;;;6.45;55.17;96079.81;4960206;28;20194;-86
2022/02/21 06:06:04;;;;;;;10.05;1.67;;;;;;;6.51;55.15;96091.00;4941618;28;20299;-84
2022/02/21 06:08:29;;;;;;;7.88;1.42;;;;;;;6.57;55.64;96085.63;4967587;28;20207;-85
2022/02/21 06:10:56;;;;;;;7.35;1.90;;;;;;;6.54;54.86;96088.69;4960842;28;20253;-84
2022/02/21 06:13:22;;;;;;;6.22;1.25;;;;;;;6.74;54.80;96093.28;4954542;28;20186;-83
2022/02/21 06:15:47;;;;;;;9.38;1.83;;;;;;;6.50;55.29;96095.38;4965079;28;20169;-84
2022/02/21 06:18:12;;;;;;;5.88;1.75;;;;;;;6.66;54.67;96078.19;4968099;28;20083;-82
2022/02/21 06:20:38;;;;;;;8.98;2.17;;;;;;;6.73;54.26;96101.28;4996010;28;20351;-87
2022/02/21 06:23:03;;;;;;;9.18;2.10;;;;;;;6.65;54.50;96091.38;4955250;28;20287;-82
2022/02/21 06:25:28;;;;;;;9.73;1.92;;;;;;;6.41;54.83;96099.44;4970384;28;20302;-84
2022/02/21 06:27:54;;;;;;;11.88;2.78;;;;;;;6.78;55.20;96110.91;4953511;28;20199;-81
2022/02/21 06:30:22;;;;;;;7.35;1.48;;;;;;;6.60;55.10;96101.66;4989813;28;20269;-87
2022/02/21 06:32:47;;;;;;;12.70;1.80;;;;;;;6.77;55.08;96117.88;4945077;28;20324;-85
2022/02/21 06:35:14;;;;;;;14.25;2.92;;;;;;;6.90;54.95;96114.88;4969463;28;20320;-83
2022/02/21 06:37:55;;;;;;;11.45;1.67;;;;;;;6.63;56.65;96114.13;4972384;28;20060;-84
2022/02/21 06:40:22;;;;;;;12.02;2.92;;;;;;;7.01;55.33;96127.88;4955667;28;20632;-83
2022/02/21 06:42:50;;;;;;;10.50;2.85;;;;;;;6.75;56.24;96127.66;4955335;28;20208;-85
2022/02/21 06:45:16;;;;;;;12.05;2.55;;;;;;;6.76;55.34;96118.91;4971978;28;20219;-86
2022/02/21 06:47:42;;;;;;;7.95;2.03;;;;;;;6.92;55.96;96133.53;4970044;28;20215;-86
2022/02/21 06:50:08;;;;;;;8.93;2.13;;;;;;;6.41;56.87;96140.03;4966601;28;20641;-83
2022/02/21 06:52:34;;;;;;;6.18;1.15;;;;;;;6.13;56.87;96141.78;4971752;28;20171;-83
2022/02/21 06:55:00;;;;;;;7.60;1.10;;;;;;;5.99;57.04;96152.47;4957768;28;20211;-86
2022/02/21 06:57:26;;;;;;;11.07;1.38;;;;;;;5.97;57.25;96158.91;4948268;28;20173;-81
2022/02/21 06:59:51;;;;;;;9.95;1.20;;;;;;;6.22;57.25;96180.91;4938284;28;20278;-83
2022/02/21 07:02:16;;;;;;;8.27;1.02;;;;;;;6.09;57.29;96177.66;4957735;28;20561;-84
2022/02/21 07:04:42;;;;;;;8.50;1.88;;;;;;;6.51;57.02;96171.94;4972533;28;20722;-83
2022/02/21 07:07:07;;;;;;;9.82;1.45;;;;;;;6.16;57.44;96174.91;4959016;28;20252;-80
2022/02/21 07:09:33;;;;;;;6.88;1.02;;;;;;;6.82;56.88;96185.19;4971338;28;20266;-87
2022/02/21 07:11:58;;;;;;;6.57;1.67;;;;;;;6.98;56.02;96172.41;4968166;28;20201;-86
2022/02/21 07:14:24;;;;;;;9.07;1.80;;;;;;;6.91;56.42;96172.59;4963207;28;20233;-84
2022/02/21 07:16:50;;;;;;;12.10;2.03;;;;;;;6.90;57.59;96169.22;4964109;28;20238;-84
2022/02/21 07:19:15;;;;;;;6.80;2.40;;;;;;;7.02;57.26;96163.88;4979100;28;20243;-84
2022/02/21 07:21:42;;;;;;;11.00;1.35;;;;;;;6.89;57.71;96170.25;4957179;28;20193;-83
2022/02/21 07:24:10;;;;;;;10.65;1.30;;;;;;;6.65;57.78;96174.13;4970405;28;20193;-84
2022/02/21 07:26:36;;;;;;;14.23;2.05;;;;;;;6.75;58.31;96184.59;4946416;28;20649;-84
2022/02/21 07:29:01;;;;;;;11.27;2.08;;;;;;;6.66;58.88;96186.06;4970415;28;20234;-84
2022/02/21 07:31:26;;;;;;;9.43;2.28;;;;;;;6.78;59.44;96185.91;4976142;28;20087;-87
2022/02/21 07:33:52;;;;;;;11.10;2.83;;;;;;;6.87;59.31;96192.19;4959999;28;20184;-85
2022/02/21 07:36:17;;;;;;;9.25;1.83;;;;;;;6.93;59.08;96184.25;4962180;28;20230;-82
2022/02/21 07:38:42;;;;;;;9.73;1.63;;;;;;;6.59;59.62;96180.31;4970244;28;20283;-83
2022/02/21 07:41:08;;;;;;;9.88;1.45;;;;;;;6.84;59.06;96193.50;4972447;28;20665;-84
2022/02/21 07:43:33;;;;;;;10.45;2.58;;;;;;;6.91;59.31;96183.72;4956593;28;20717;-84
2022/02/21 07:45:59;;;;;;;11.40;2.05;;;;;;;6.96;58.80;96195.13;4962401;28;20141;-86
2022/02/21 07:48:24;;;;;;;10.45;2.30;;;;;;;6.68;59.45;96220.22;4959441;28;20646;-84
2022/02/21 07:50:54;;;;;;;9.73;1.85;;;;;;;6.93;59.60;96207.53;4970250;28;20226;-84
2022/02/21 07:53:20;;;;;;;7.05;1.33;;;;;;;6.50;61.07;96221.31;4966195;28;20096;-87
2022/02/21 07:55:46;;;;;;;4.03;1.20;;;;;;;5.99;63.35;96240.31;4957242;28;20202;-85
2022/02/21 07:58:13;;;;;;;2.88;0.70;;;;;;;5.51;64.68;96251.22;4971949;28;20521;-82
2022/02/21 08:00:38;;;;;;;1.98;0.95;;;;;;;5.36;65.73;96251.75;4964336;28;20264;-84
2022/02/21 08:03:04;;;;;;;5.60;0.80;;;;;;;5.28;65.64;96252.13;4951750;28;20201;-86
2022/02/21 08:05:29;;;;;;;2.38;0.40;;;;;;;5.35;65.44;96270.84;4968699;28;20276;-84
2022/02/21 08:07:54;;;;;;;2.40;0.40;;;;;;;5.16;66.01;96262.53;4946029;28;20163;-85
2022/02/21 08:10:20;;;;;;;0.57;0.20;;;;;;;4.88;67.03;96266.66;4966914;28;20245;-86
2022/02/21 08:12:45;;;;;;;1.85;0.20;;;;;;;4.88;67.42;96254.56;4962508;28;20301;-86
2022/02/21 08:15:11;;;;;;;0.90;0.30;;;;;;;5.00;67.09;96280.31;4973805;28;20632;-83
2022/02/21 08:17:44;;;;;;;0.25;0.20;;;;;;;4.69;68.06;96282.31;4957905;28;20106;-83
2022/02/21 08:20:11;;;;;;;1.38;0.20;;;;;;;4.76;67.98;96287.34;4960539;28;20352;-86
2022/02/21 08:22:37;;;;;;;0.77;0.30;;;;;;;4.99;67.58;96277.97;4945294;28;20307;-86
2022/02/21 08:25:03;;;;;;;3.10;0.52;;;;;;;4.71;68.19;96263.25;4957496;28;20279;-81
2022/02/21 08:27:29;;;;;;;0.60;0.20;;;;;;;4.80;68.39;96269.63;4972376;28;20182;-84
2022/02/21 08:29:54;;;;;;;3.17;0.43;;;;;;;4.96;68.72;96276.63;4951527;28;20213;-86
2022/02/21 08:32:19;;;;;;;2.38;0.30;;;;;;;4.94;68.40;96260.59;4978553;28;20213;-83
2022/02/21 08:34:46;;;;;;;0.85;0.40;;;;;;;4.88;69.03;96249.41;4964544;28;20203;-85
2022/02/21 08:37:13;;;;;;;2.92;0.40;;;;;;;5.22;68.95;96257.19;4938279;28;20187;-85
2022/02/21 08:39:38;;;;;;;3.42;0.30;;;;;;;5.32;68.52;96258.41;4972431;28;20275;-84
2022/02/21 08:42:04;;;;;;;3.38;0.80;;;;;;;5.53;68.06;96257.69;4974251;28;20706;-84
2022/02/21 08:44:31;;;;;;;5.40;1.58;;;;;;;5.46;68.13;96262.25;4966135;28;20195;-85
2022/02/21 08:46:57;;;;;;;2.75;0.57;;;;;;;5.64;67.97;96269.00;4941280;28;20310;-84
2022/02/21 08:49:22;;;;;;;3.70;0.70;;;;;;;5.76;66.95;96285.19;4971935;28;20107;-85
2022/02/21 08:51:48;;;;;;;2.70;0.70;;;;;;;5.46;67.84;96272.56;4972534;28;20201;-84
2022/02/21 08:54:13;;;;;;;5.00;0.70;;;;;;;5.67;67.61;96286.56;4964601;28;20652;-84
2022/02/21 08:56:39;;;;;;;3.80;0.75;;;;;;;5.60;67.86;96291.13;4971037;28;20644;-85
2022/02/21 08:59:04;;;;;;;3.45;1.05;;;;;;;5.43;68.00;96291.91;4962312;28;20316;-84
2022/02/21 09:01:30;;;;;;;5.35;0.95;;;;;;;5.58;67.79;96270.69;4969000;28;20207;-84
2022/02/21 09:03:55;;;;;;;3.33;1.10;;;;;;;5.79;67.70;96284.72;4963952;28;20370;-84
2022/02/21 09:06:21;;;;;;;3.60;0.80;;;;;;;5.87;67.21;96272.44;4972645;28;20206;-84
2022/02/21 09:08:46;;;;;;;2.03;0.63;;;;;;;5.82;67.60;96260.97;4956065;28;20251;-84
2022/02/21 09:11:12;;;;;;;7.78;2.08;;;;;;;5.93;68.21;96274.84;4985140;28;20597;-82
2022/02/21 09:13:38;;;;;;;2.67;0.68;;;;;;;5.89;67.67;96265.22;4942345;28;20601;-82
2022/02/21 09:16:04;;;;;;;2.38;0.70;;;;;;;5.88;66.64;96269.59;4948527;28;20206;-84
2022/02/21 09:18:30;;;;;;;3.17;0.90;;;;;;;5.36;68.49;96270.59;4959523;28;20636;-83
2022/02/21 09:20:56;;;;;;;4.53;0.75;;;;;;;5.68;67.91;96287.38;4972333;28;20562;-83
2022/02/21 09:23:22;;;;;;;2.75;0.70;;;;;;;5.67;68.06;96280.63;4954528;28;20187;-83
2022/02/21 09:25:47;;;;;;;6.57;0.98;;;;;;;5.76;67.96;96272.28;4950340;28;20215;-82
2022/02/21 09:28:13;;;;;;;4.47;0.63;;;;;;;5.79;67.77;96271.81;4980417;28;20529;-83
2022/02/21 09:30:39;;;;;;;6.18;1.08;;;;;;;5.77;67.67;96268.66;4947784;28;20240;-81
2022/02/21 09:33:04;;;;;;;6.57;1.00;;;;;;;5.79;66.47;96276.97;4980936;28;20638;-85
2022/02/21 09:35:29;;;;;;;2.20;0.68;;;;;;;6.15;66.83;96284.47;4962692;28;20271;-82
2022/02/21 09:37:57;;;;;;;4.45;0.90;;;;;;;6.36;66.46;96281.16;4980577;28;20207;-82
2022/02/21 09:40:23;;;;;;;5.30;0.90;;;;;;;6.26;67.81;96270.66;4962389;28;20163;-82
2022/02/21 09:42:49;;;;;;;2.53;0.50;;;;;;;6.29;67.57;96259.84;4946219;28;20252;-82
2022/02/21 09:45:17;;;;;;;3.17;0.60;;;;;;;6.49;67.27;96271.47;4957246;28;20758;-84
2022/02/21 09:47:44;;;;;;;5.82;0.57;;;;;;;6.72;65.94;96267.88;4953843;28;20178;-83
2022/02/21 09:50:11;;;;;;;3.60;0.85;;;;;;;6.53;66.71;96254.47;4957335;28;20190;-84
2022/02/21 09:52:37;;;;;;;2.95;1.27;;;;;;;6.69;66.45;96263.19;4957987;28;20281;-83
2022/02/21 09:55:04;;;;;;;5.22;1.17;;;;;;;6.58;67.38;96257.13;4939576;28;20070;-84
2022/02/21 09:57:29;;;;;;;1.35;0.75;;;;;;;6.62;67.25;96254.81;4959812;28;20210;-85
2022/02/21 09:59:54;;;;;;;2.97;0.63;;;;;;;6.71;67.28;96250.78;4963583;28;20643;-85
2022/02/21 10:02:23;;;;;;;5.20;1.75;;;;;;;6.20;68.30;96230.25;4951986;28;20178;-84
2022/02/21 10:05:11;;;;;;;3.45;0.68;;;;;;;6.54;67.24;96243.09;4952065;28;20592;-85
2022/02/21 10:07:38;;;;;;;5.78;0.93;;;;;;;6.57;68.08;96240.03;4981613;28;20380;-82
2022/02/21 10:10:04;;;;;;;2.42;1.10;;;;;;;6.63;67.21;96248.63;4962597;28;20674;-82
2022/02/21 10:12:30;;;;;;;3.22;0.80;;;;;;;6.38;67.69;96239.53;4987049;28;20158;-82
2022/02/21 10:14:57;;;;;;;5.72;1.35;;;;;;;6.54;67.22;96236.09;4969463;28;20303;-84
2022/02/21 10:17:25;;;;;;;5.93;0.70;;;;;;;6.44;66.43;96235.97;4966648;28;20118;-82
2022/02/21 10:20:04;;;;;;;5.93;1.15;;;;;;;6.47;67.36;96230.34;4955813;28;20351;-85
2022/02/21 10:22:32;;;;;;;5.28;1.23;;;;;;;6.40;66.04;96221.97;4946341;28;20189;-85
2022/02/21 10:24:58;;;;;;;5.03;1.15;;;;;;;6.84;66.35;96245.25;4979995;28;20269;-83
2022/02/21 10:27:29;;;;;;;4.00;0.95;;;;;;;6.68;66.07;96238.31;4973477;28;20529;-85
2022/02/21 10:30:01;;;;;;;3.97;1.48;;;;;;;6.73;65.93;96238.38;4952118;28;20215;-82
2022/02/21 10:32:29;;;;;;;7.35;1.30;;;;;;;6.59;65.52;96232.78;4970963;28;20215;-84
2022/02/21 10:34:56;;;;;;;4.63;0.95;;;;;;;6.92;66.06;96242.22;4968356;28;20682;-82
2022/02/21 10:37:24;;;;;;;7.10;1.58;;;;;;;6.86;65.99;96247.59;4978643;28;20207;-82
2022/02/21 10:40:06;;;;;;;7.75;1.23;;;;;;;6.85;66.60;96246.78;4963233;28;20082;-85
2022/02/21 10:42:32;;;;;;;5.00;0.98;;;;;;;7.19;64.57;96253.59;4959490;28;20624;-84
2022/02/21 10:45:17;;;;;;;4.22;1.00;;;;;;;7.28;63.63;96252.91;4959366;28;20277;-83
2022/02/21 10:48:02;;;;;;;;;;;;;;;7.06;63.63;96247.78;4985557;28;20157;-83
2022/02/21 10:50:29;;;;;;;6.38;1.65;;;;;;;7.10;64.56;96240.31;4960056;28;20094;-81
2022/02/21 10:52:55;;;;;;;4.63;0.98;;;;;;;7.10;64.20;96266.19;4955527;28;20187;-84
2022/02/21 10:55:30;;;;;;;3.72;1.30;;;;;;;6.90;63.55;96253.81;4959675;28;20184;-84
2022/02/21 10:57:55;;;;;;;6.78;0.70;;;;;;;7.15;64.30;96253.31;4938823;28;20313;-84
2022/02/21 11:00:21;;;;;;;4.65;1.58;;;;;;;6.99;61.80;96236.06;4954034;28;20528;-84
2022/02/21 11:02:46;;;;;;;5.55;0.70;;;;;;;7.03;62.12;96231.97;4965596;28;20176;-81
2022/02/21 11:05:12;;;;;;;4.95;1.33;;;;;;;7.07;61.04;96238.97;4979794;28;20704;-83
2022/02/21 11:07:41;;;;;;;3.35;0.70;;;;;;;7.02;61.15;96245.91;4957407;28;20179;-82
2022/02/21 11:10:07;;;;;;;3.95;1.20;;;;;;;7.10;61.58;96242.91;4941481;28;20210;-83
2022/02/21 11:12:37;;;;;;;4.93;0.70;;;;;;;7.01;60.93;96239.16;4948625;28;20193;-83
2022/02/21 11:15:04;;;;;;;6.57;1.58;;;;;;;7.11;60.95;96239.28;4957217;28;20259;-84
2022/02/21 11:17:29;;;;;;;5.38;0.70;;;;;;;7.22;60.87;96222.81;4934881;28;20800;-84
2022/02/21 11:19:54;;;;;;;9.73;2.85;;;;;;;7.16;61.16;96215.25;4969381;28;20246;-85
2022/02/21 11:22:21;;;;;;;4.13;1.23;;;;;;;7.02;62.21;96217.47;4953666;28;20220;-82
2022/02/21 11:24:51;;;;;;;7.30;0.95;;;;;;;6.90;62.28;96189.13;4943890;28;20184;-85
2022/02/21 11:27:41;;;;;;;4.55;0.70;;;;;;;7.25;62.42;96196.44;4981207;28;20411;-82
2022/02/21 11:30:26;;;;;;;4.32;0.98;;;;;;;7.10;62.92;96176.38;4966606;28;20197;-84
2022/02/21 11:33:05;;;;;;;3.55;0.75;;;;;;;7.42;61.25;96179.97;4969153;28;20182;-83
2022/02/21 11:35:30;;;;;;;10.27;2.00;;;;;;;7.57;60.93;96187.06;4984856;28;20729;-83